Time;durP1;ratioP1;P1;durP2;ratioP2;P2;SDS_P1;SDS_P2;PMS_P1;PMS_P2;Temp;Humidity;BMP_temperature;BMP_pressure;BME280_temperature;BME280_humidity;BME280_pressure;Samples;Min_cycle;Max_cycle;Signal;HPM_P1;HPM_P2
2022/11/09 00:02:20;;;;;;;1.90;1.13;;;16.90;91.70;;;;;;5071336;28;20116;-68
2022/11/09 00:04:45;;;;;;;3.15;1.33;;;16.90;91.80;;;;;;5071177;28;20370;-68
2022/11/09 00:07:11;;;;;;;1.70;1.00;;;16.90;91.80;;;;;;5071201;28;20032;-69
2022/11/09 00:09:37;;;;;;;3.72;1.10;;;16.90;91.90;;;;;;5070973;28;20025;-69
2022/11/09 00:12:03;;;;;;;2.58;1.38;;;16.90;91.90;;;;;;5071410;28;20031;-68
2022/11/09 00:14:30;;;;;;;1.85;0.93;;;16.90;91.90;;;;;;5071815;28;20099;-68
2022/11/09 00:16:56;;;;;;;4.20;1.25;;;16.90;92.20;;;;;;5071256;28;20032;-68
2022/11/09 00:19:22;;;;;;;3.25;1.05;;;16.90;91.90;;;;;;5071219;28;20470;-69
2022/11/09 00:21:48;;;;;;;3.10;1.20;;;16.90;91.90;;;;;;5071346;28;20032;-68
2022/11/09 00:24:14;;;;;;;2.45;1.27;;;16.90;91.90;;;;;;5070972;28;20020;-69
2022/11/09 00:26:40;;;;;;;2.22;1.30;;;16.90;91.90;;;;;;5071383;28;20035;-69
2022/11/09 00:29:06;;;;;;;4.93;1.70;;;16.90;91.90;;;;;;5070055;28;20040;-69
2022/11/09 00:31:32;;;;;;;2.90;1.40;;;16.90;91.90;;;;;;5071029;28;20362;-69
2022/11/09 00:33:58;;;;;;;1.80;1.35;;;16.90;91.90;;;;;;5071195;28;20412;-68
2022/11/09 00:36:27;;;;;;;2.33;1.25;;;16.90;91.90;;;;;;5070853;28;20378;-68
2022/11/09 00:38:55;;;;;;;11.18;1.33;;;16.90;91.90;;;;;;5071896;28;20358;-69
2022/11/09 00:41:22;;;;;;;3.00;1.02;;;16.90;92.00;;;;;;5070653;28;20040;-68
2022/11/09 00:43:48;;;;;;;2.28;1.40;;;16.90;92.00;;;;;;5069777;28;20043;-68
2022/11/09 00:46:14;;;;;;;3.30;1.23;;;16.80;92.20;;;;;;5070996;28;20058;-69
2022/11/09 00:48:40;;;;;;;2.70;1.30;;;16.80;91.90;;;;;;5070905;28;20044;-69
2022/11/09 00:51:06;;;;;;;3.33;1.38;;;16.80;91.90;;;;;;5070789;28;20025;-68
2022/11/09 00:53:32;;;;;;;2.45;1.08;;;16.80;91.90;;;;;;5071232;28;20025;-68
2022/11/09 00:56:07;;;;;;;2.65;1.20;;;16.80;91.90;;;;;;5070751;28;20033;-68
2022/11/09 00:58:34;;;;;;;4.13;1.30;;;16.80;92.00;;;;;;5070679;28;20035;-69
2022/11/09 01:01:10;;;;;;;4.35;1.30;;;16.80;92.00;;;;;;5070962;28;20037;-69
2022/11/09 01:03:36;;;;;;;1.13;0.88;;;16.80;92.00;;;;;;5052988;28;20090;-70
2022/11/09 01:06:02;;;;;;;7.65;1.75;;;16.80;92.00;;;;;;5071094;28;20028;-68
2022/11/09 01:08:28;;;;;;;1.88;1.23;;;16.80;92.10;;;;;;5071019;28;20040;-67
2022/11/09 01:10:54;;;;;;;1.95;1.20;;;16.80;92.00;;;;;;5052891;28;20037;-69
2022/11/09 01:13:20;;;;;;;3.50;0.95;;;16.80;92.00;;;;;;5070439;28;20024;-70
2022/11/09 01:15:48;;;;;;;1.60;0.98;;;16.80;92.00;;;;;;5069501;28;20032;-69
2022/11/09 01:18:16;;;;;;;2.72;0.98;;;16.80;92.00;;;;;;5070712;28;20047;-69
2022/11/09 01:20:46;;;;;;;5.40;1.40;;;16.80;92.30;;;;;;5053141;28;20039;-68
2022/11/09 01:23:13;;;;;;;4.07;1.27;;;16.80;92.00;;;;;;5070469;28;20044;-69
2022/11/09 01:25:39;;;;;;;3.50;1.20;;;16.80;92.00;;;;;;5070491;28;20119;-68
2022/11/09 01:28:06;;;;;;;1.88;1.20;;;16.80;92.00;;;;;;5070398;28;20115;-69
2022/11/09 01:30:37;;;;;;;5.28;1.08;;;16.80;92.00;;;;;;5070271;28;20036;-69
2022/11/09 01:33:04;;;;;;;4.57;1.17;;;16.80;92.00;;;;;;5070276;28;20099;-67
2022/11/09 01:35:32;;;;;;;5.00;1.02;;;16.80;92.00;;;;;;5070942;28;20097;-69
2022/11/09 01:37:58;;;;;;;1.92;1.00;;;16.70;91.90;;;;;;5070307;28;20033;-69
2022/11/09 01:40:23;;;;;;;6.05;1.30;;;16.80;92.00;;;;;;5070986;28;20559;-69
2022/11/09 01:42:49;;;;;;;3.28;0.98;;;16.70;92.00;;;;;;5055974;28;20037;-69
2022/11/09 01:45:17;;;;;;;2.20;1.15;;;16.80;92.00;;;;;;5073886;28;20516;-68
2022/11/09 01:47:51;;;;;;;2.17;0.90;;;16.70;92.00;;;;;;5074282;28;20024;-70
2022/11/09 01:50:25;;;;;;;2.72;1.23;;;16.70;92.00;;;;;;5074202;28;20049;-69
2022/11/09 01:52:51;;;;;;;3.30;1.00;;;16.80;92.00;;;;;;5073953;28;20441;-69
2022/11/09 01:55:22;;;;;;;3.45;1.17;;;16.70;92.00;;;;;;5074033;28;20051;-68
2022/11/09 01:58:03;;;;;;;1.95;1.02;;;16.70;91.90;;;;;;5056242;28;20049;-69
2022/11/09 02:00:31;;;;;;;1.80;0.93;;;16.70;92.00;;;;;;5073582;28;20052;-69
2022/11/09 02:03:08;;;;;;;2.35;1.05;;;16.70;91.90;;;;;;5074190;28;20096;-68
2022/11/09 02:05:36;;;;;;;1.95;1.00;;;16.70;92.00;;;;;;5073954;28;20048;-68
2022/11/09 02:08:05;;;;;;;2.40;1.13;;;16.80;92.10;;;;;;5055840;28;20040;-69
2022/11/09 02:10:51;;;;;;;3.92;1.10;;;16.80;92.00;;;;;;5073231;28;20552;-69
2022/11/09 02:13:20;;;;;;;1.88;1.00;;;16.70;92.00;;;;;;5073383;28;20028;-68
2022/11/09 02:15:48;;;;;;;1.80;0.93;;;16.80;92.00;;;;;;5073304;28;20032;-69
2022/11/09 02:18:14;;;;;;;1.63;1.15;;;16.70;92.00;;;;;;5073435;28;20502;-68
2022/11/09 02:20:51;;;;;;;5.07;1.20;;;16.70;92.00;;;;;;5073798;28;20058;-68
2022/11/09 02:23:17;;;;;;;2.10;1.10;;;16.80;92.10;;;;;;5055645;28;20037;-68
2022/11/09 02:25:57;;;;;;;4.10;1.20;;;16.70;92.10;;;;;;5073376;28;20117;-67
2022/11/09 02:28:24;;;;;;;3.38;1.30;;;16.70;92.10;;;;;;5055797;28;20404;-68
2022/11/09 02:30:54;;;;;;;2.23;1.30;;;16.70;92.10;;;;;;5073320;28;20024;-68
2022/11/09 02:33:19;;;;;;;1.75;1.17;;;16.80;92.20;;;;;;5073091;28;20265;-68
2022/11/09 02:35:45;;;;;;;4.18;1.48;;;16.70;92.20;;;;;;5075585;28;20401;-68
2022/11/09 02:38:13;;;;;;;2.75;1.05;;;16.70;92.20;;;;;;5093439;28;20048;-68
2022/11/09 02:40:42;;;;;;;1.33;0.82;;;16.70;92.30;;;;;;5093056;28;20035;-68
2022/11/09 02:43:09;;;;;;;1.80;0.85;;;16.70;92.30;;;;;;5092864;28;20153;-69
2022/11/09 02:45:35;;;;;;;1.73;0.90;;;16.70;92.30;;;;;;5093329;28;20043;-68
2022/11/09 02:48:01;;;;;;;1.58;0.90;;;16.70;92.40;;;;;;5092981;28;20031;-70
2022/11/09 02:50:27;;;;;;;2.15;1.10;;;16.70;92.40;;;;;;5093501;28;20016;-68
2022/11/09 02:52:53;;;;;;;3.70;1.52;;;16.80;92.50;;;;;;5091913;28;20039;-69
2022/11/09 02:55:18;;;;;;;3.53;1.17;;;16.70;92.50;;;;;;5092745;28;20036;-69
2022/11/09 02:57:44;;;;;;;2.03;0.80;;;16.70;92.50;;;;;;5092810;28;20043;-69
2022/11/09 03:00:10;;;;;;;1.45;0.93;;;16.80;92.50;;;;;;5092795;28;20085;-69
2022/11/09 03:02:36;;;;;;;2.08;1.13;;;16.70;92.70;;;;;;5075326;28;20024;-70
2022/11/09 03:05:03;;;;;;;3.25;0.80;;;16.70;92.70;;;;;;5092635;28;20074;-70
2022/11/09 03:07:29;;;;;;;3.28;1.00;;;16.70;92.80;;;;;;5092807;28;20036;-69
2022/11/09 03:09:54;;;;;;;2.22;1.00;;;16.70;92.80;;;;;;5074492;28;20054;-69
2022/11/09 03:12:29;;;;;;;2.00;1.15;;;16.70;93.10;;;;;;5092425;28;20028;-68
2022/11/09 03:15:00;;;;;;;1.80;1.35;;;16.70;92.90;;;;;;5075006;28;20062;-68
2022/11/09 03:17:26;;;;;;;1.33;1.00;;;16.70;92.90;;;;;;5092869;28;20039;-69
2022/11/09 03:19:53;;;;;;;2.53;1.13;;;16.70;92.90;;;;;;5092636;28;20024;-69
2022/11/09 03:22:19;;;;;;;3.10;1.25;;;16.70;93.00;;;;;;5074659;28;20034;-68
2022/11/09 03:24:45;;;;;;;1.58;1.00;;;16.70;93.00;;;;;;5092766;28;20365;-69
2022/11/09 03:27:10;;;;;;;2.17;1.17;;;16.70;93.00;;;;;;5092357;28;20024;-69
2022/11/09 03:29:36;;;;;;;6.28;1.40;;;16.70;93.00;;;;;;5092875;28;20016;-69
2022/11/09 03:32:02;;;;;;;4.63;1.20;;;16.60;93.00;;;;;;5092097;28;20036;-69
2022/11/09 03:34:28;;;;;;;1.85;1.10;;;16.70;93.10;;;;;;5092127;28;20477;-69
2022/11/09 03:36:54;;;;;;;1.95;1.10;;;16.60;93.10;;;;;;5092014;28;20047;-68
2022/11/09 03:39:19;;;;;;;2.67;1.08;;;16.50;93.10;;;;;;5091957;28;20052;-68
2022/11/09 03:41:45;;;;;;;3.40;1.45;;;16.60;93.40;;;;;;5092411;28;20098;-69
2022/11/09 03:44:11;;;;;;;5.50;1.13;;;16.60;93.20;;;;;;5091934;28;20094;-70
2022/11/09 03:46:36;;;;;;;2.28;1.08;;;16.50;93.20;;;;;;5074143;28;20024;-69
2022/11/09 03:49:02;;;;;;;3.10;1.08;;;16.50;93.20;;;;;;5074029;28;20036;-68
2022/11/09 03:51:28;;;;;;;1.70;0.93;;;16.50;93.20;;;;;;5091869;28;20522;-69
2022/11/09 03:53:56;;;;;;;1.80;1.15;;;16.50;93.20;;;;;;5092531;28;20039;-69
2022/11/09 03:56:21;;;;;;;3.33;1.30;;;16.50;93.30;;;;;;5091639;28;20039;-67
2022/11/09 03:58:47;;;;;;;2.97;1.23;;;16.50;93.30;;;;;;5091913;28;20028;-69
2022/11/09 04:01:13;;;;;;;3.22;0.98;;;16.50;93.30;;;;;;5091605;28;20365;-69
2022/11/09 04:03:39;;;;;;;2.55;1.13;;;16.50;93.20;;;;;;5091650;28;20040;-69
2022/11/09 04:06:05;;;;;;;1.00;0.88;;;16.50;93.30;;;;;;5073492;28;20028;-69
2022/11/09 04:08:30;;;;;;;2.45;0.80;;;16.40;93.30;;;;;;5091913;28;20028;-69
2022/11/09 04:10:56;;;;;;;2.75;1.20;;;16.40;93.40;;;;;;5091320;28;20148;-69
2022/11/09 04:13:22;;;;;;;2.38;1.38;;;16.50;93.40;;;;;;5091485;28;20081;-69
2022/11/09 04:15:48;;;;;;;2.88;1.08;;;16.50;93.30;;;;;;5073417;28;20468;-68
2022/11/09 04:18:14;;;;;;;1.45;0.80;;;16.40;93.30;;;;;;5091468;28;20066;-69
2022/11/09 04:20:40;;;;;;;3.78;1.20;;;16.50;93.40;;;;;;5073897;28;20027;-68
2022/11/09 04:23:08;;;;;;;2.08;1.30;;;16.40;93.40;;;;;;5091371;28;20024;-69
2022/11/09 04:25:36;;;;;;;1.40;0.90;;;16.40;93.40;;;;;;5093885;28;20381;-69
2022/11/09 04:28:03;;;;;;;;;;;16.40;93.50;;;;;;5091781;28;20466;-69
2022/11/09 04:30:30;;;;;;;1.50;0.95;;;16.40;93.60;;;;;;5091517;28;20621;-68
2022/11/09 04:32:58;;;;;;;4.40;0.90;;;16.40;93.60;;;;;;5096012;28;20031;-68
2022/11/09 04:35:25;;;;;;;2.78;1.15;;;16.40;93.90;;;;;;5091067;28;20311;-69
2022/11/09 04:38:05;;;;;;;7.57;1.13;;;16.40;93.60;;;;;;5073448;28;20421;-68
2022/11/09 04:40:33;;;;;;;1.30;0.93;;;16.40;93.70;;;;;;5091009;28;20085;-68
2022/11/09 04:43:00;;;;;;;3.13;1.00;;;16.40;93.70;;;;;;5073225;28;20397;-68
2022/11/09 04:45:26;;;;;;;2.38;1.08;;;16.40;93.70;;;;;;5090962;28;20039;-69
2022/11/09 04:47:57;;;;;;;1.52;0.93;;;16.40;93.70;;;;;;5091440;28;20446;-68
2022/11/09 04:50:23;;;;;;;3.95;0.75;;;16.40;94.10;;;;;;5073240;28;20416;-69
2022/11/09 04:52:49;;;;;;;2.40;0.90;;;16.40;93.80;;;;;;5090840;28;20032;-69
2022/11/09 04:55:14;;;;;;;1.90;0.77;;;16.40;93.80;;;;;;5090681;28;20067;-68
2022/11/09 04:57:40;;;;;;;2.20;0.90;;;16.40;93.80;;;;;;5090771;28;20031;-69
2022/11/09 05:00:06;;;;;;;4.00;0.80;;;16.40;93.90;;;;;;5090662;28;20024;-69
2022/11/09 05:02:33;;;;;;;1.75;1.00;;;16.40;94.00;;;;;;5091166;28;20420;-69
2022/11/09 05:04:59;;;;;;;2.80;0.98;;;16.40;94.00;;;;;;5091080;28;20115;-69
2022/11/09 05:07:25;;;;;;;1.02;0.70;;;16.40;94.00;;;;;;5090781;28;20119;-69
2022/11/09 05:09:50;;;;;;;2.17;0.75;;;16.50;94.00;;;;;;5090731;28;20052;-67
2022/11/09 05:12:16;;;;;;;4.07;1.13;;;16.40;94.10;;;;;;5090590;28;20020;-69
2022/11/09 05:14:41;;;;;;;4.43;1.30;;;16.40;94.20;;;;;;5091423;28;20028;-71
2022/11/09 05:17:07;;;;;;;3.22;0.90;;;16.30;94.30;;;;;;5094233;28;20036;-69
2022/11/09 05:19:33;;;;;;;1.38;0.70;;;16.40;94.40;;;;;;5094750;28;20024;-69
2022/11/09 05:23:57;;;;;;;1.90;1.02;;;16.40;94.50;;;;;;5094482;28;20039;-68
2022/11/09 05:24:45;;;;;;;3.50;1.25;;;16.30;94.60;;;;;;5094366;28;20119;-69
2022/11/09 05:27:10;;;;;;;3.08;0.98;;;16.30;94.40;;;;;;5094566;28;20095;-69
2022/11/09 05:29:36;;;;;;;3.97;0.85;;;16.30;94.60;;;;;;5094868;28;20095;-69
2022/11/09 05:32:02;;;;;;;1.30;0.85;;;16.30;94.70;;;;;;5094725;28;20032;-69
2022/11/09 05:34:27;;;;;;;3.33;1.08;;;16.30;94.70;;;;;;5094619;28;20526;-69
2022/11/09 05:36:53;;;;;;;2.25;1.15;;;16.30;94.80;;;;;;5093939;28;20449;-69
2022/11/09 05:39:19;;;;;;;1.83;0.98;;;16.30;94.90;;;;;;5094501;28;20097;-69
2022/11/09 05:41:44;;;;;;;2.90;1.42;;;16.30;95.00;;;;;;5094468;28;20044;-68
2022/11/09 05:44:10;;;;;;;1.30;1.10;;;16.30;94.90;;;;;;5076273;28;20107;-68
2022/11/09 05:46:36;;;;;;;2.72;1.10;;;16.30;94.90;;;;;;5094437;28;20024;-70
2022/11/09 05:49:02;;;;;;;4.05;0.95;;;16.20;94.90;;;;;;5094063;28;20111;-70
2022/11/09 05:51:28;;;;;;;5.97;1.60;;;16.20;95.10;;;;;;5093975;28;20031;-69
2022/11/09 05:53:53;;;;;;;5.13;1.15;;;16.20;95.10;;;;;;5094551;28;20353;-69
2022/11/09 05:56:19;;;;;;;3.38;1.27;;;16.10;95.20;;;;;;5075960;28;20111;-68
2022/11/09 05:58:45;;;;;;;4.38;1.50;;;16.20;95.10;;;;;;5093657;28;20377;-70
2022/11/09 06:01:13;;;;;;;5.65;1.10;;;16.10;95.30;;;;;;5093904;28;20255;-68
2022/11/09 06:03:42;;;;;;;4.72;1.17;;;16.20;95.20;;;;;;5093939;28;20046;-69
2022/11/09 06:06:09;;;;;;;2.75;1.00;;;16.20;95.20;;;;;;5093729;28;20092;-68
2022/11/09 06:08:35;;;;;;;3.20;0.90;;;16.20;95.40;;;;;;5094054;28;20028;-70
2022/11/09 06:11:03;;;;;;;5.38;1.20;;;16.20;95.30;;;;;;5093682;28;20040;-69
2022/11/09 06:13:29;;;;;;;4.75;1.08;;;16.20;95.30;;;;;;5094142;28;20069;-68
2022/11/09 06:15:56;;;;;;;2.05;0.95;;;16.10;95.50;;;;;;5093646;28;20032;-69
2022/11/09 06:18:23;;;;;;;3.92;1.40;;;16.10;95.40;;;;;;5075623;28;20059;-71
2022/11/09 06:20:53;;;;;;;2.35;1.05;;;16.10;95.70;;;;;;5097011;28;20377;-70
2022/11/09 06:23:24;;;;;;;4.30;1.20;;;16.10;95.70;;;;;;5093461;28;20580;-70
2022/11/09 06:25:56;;;;;;;3.60;1.10;;;16.20;95.60;;;;;;5093342;28;20043;-71
2022/11/09 06:28:22;;;;;;;2.92;1.17;;;16.10;95.80;;;;;;5092010;28;20039;-70
2022/11/09 06:30:48;;;;;;;1.95;1.08;;;16.10;95.70;;;;;;5075418;28;20103;-69
2022/11/09 06:33:13;;;;;;;5.78;1.25;;;16.20;95.70;;;;;;5093190;28;20362;-70
2022/11/09 06:35:39;;;;;;;4.70;1.27;;;16.20;95.70;;;;;;5075603;28;20090;-71
2022/11/09 06:38:05;;;;;;;2.83;1.13;;;16.20;95.70;;;;;;5092807;28;20032;-69
2022/11/09 06:40:32;;;;;;;3.47;1.98;;;16.20;95.70;;;;;;5093125;28;20039;-69
2022/11/09 06:42:59;;;;;;;3.05;1.80;;;16.20;95.80;;;;;;5071754;28;20382;-71
2022/11/09 06:45:27;;;;;;;2.22;1.23;;;16.20;96.00;;;;;;5072742;28;20033;-69
2022/11/09 06:48:01;;;;;;;2.60;1.20;;;16.20;95.90;;;;;;5073031;28;20029;-69
2022/11/09 06:50:30;;;;;;;4.18;1.48;;;16.30;96.00;;;;;;5072820;28;20042;-65
2022/11/09 06:53:04;;;;;;;4.22;2.42;;;16.20;95.80;;;;;;5072407;28;20025;-70
2022/11/09 06:55:31;;;;;;;3.17;1.98;;;16.30;95.80;;;;;;5064602;28;20064;-69
2022/11/09 06:57:57;;;;;;;7.97;1.77;;;16.30;95.90;;;;;;5052684;28;20348;-68
2022/11/09 07:00:24;;;;;;;3.78;1.60;;;16.30;95.90;;;;;;5052373;28;20450;-70
2022/11/09 07:02:51;;;;;;;6.30;1.80;;;16.30;95.70;;;;;;5051914;28;20028;-69
2022/11/09 07:05:17;;;;;;;2.08;1.10;;;16.20;96.00;;;;;;5051272;28;20087;-69
2022/11/09 07:07:43;;;;;;;5.30;1.38;;;16.30;96.30;;;;;;5052426;28;20116;-71
2022/11/09 07:10:09;;;;;;;6.60;1.30;;;16.20;96.20;;;;;;5067788;28;20036;-70
2022/11/09 07:12:35;;;;;;;1.92;1.20;;;16.20;96.20;;;;;;5067619;28;20048;-72
2022/11/09 07:15:01;;;;;;;1.75;1.08;;;16.30;96.30;;;;;;5052229;28;20025;-73
2022/11/09 07:17:32;;;;;;;2.85;1.23;;;16.20;96.20;;;;;;5051561;28;20082;-74
2022/11/09 07:19:58;;;;;;;4.88;1.83;;;16.30;96.20;;;;;;5052547;28;20033;-71
2022/11/09 07:22:23;;;;;;;4.20;1.63;;;16.40;96.10;;;;;;5052206;28;20036;-71
2022/11/09 07:24:49;;;;;;;5.38;1.55;;;16.40;96.20;;;;;;5052397;28;20039;-72
2022/11/09 07:27:15;;;;;;;2.78;1.30;;;16.30;96.20;;;;;;5051771;28;20021;-72
2022/11/09 07:29:40;;;;;;;3.03;1.40;;;16.30;96.40;;;;;;5052332;28;20442;-72
2022/11/09 07:32:06;;;;;;;6.53;1.60;;;16.30;96.40;;;;;;5050792;28;20028;-71
2022/11/09 07:34:33;;;;;;;2.53;1.50;;;16.30;96.30;;;;;;5051915;28;20060;-72
2022/11/09 07:36:59;;;;;;;8.25;1.50;;;16.30;96.50;;;;;;5052327;28;20474;-70
2022/11/09 07:39:24;;;;;;;2.47;1.27;;;16.30;96.50;;;;;;5051390;28;20175;-73
2022/11/09 07:41:50;;;;;;;6.47;1.73;;;16.30;96.30;;;;;;5060129;28;20339;-71
2022/11/09 07:44:17;;;;;;;2.33;1.33;;;16.30;96.40;;;;;;5071841;28;20048;-73
2022/11/09 07:46:47;;;;;;;4.82;1.80;;;16.40;96.50;;;;;;5053898;28;20036;-74
2022/11/09 07:49:14;;;;;;;6.97;2.20;;;16.40;96.40;;;;;;5053809;28;20387;-73
2022/11/09 07:51:41;;;;;;;5.45;1.58;;;16.40;96.50;;;;;;5071506;28;20036;-75
2022/11/09 07:54:07;;;;;;;3.63;1.38;;;16.40;96.50;;;;;;5053654;28;20034;-73
2022/11/09 07:56:33;;;;;;;4.88;1.50;;;16.40;96.60;;;;;;5071676;28;20086;-73
2022/11/09 07:58:58;;;;;;;2.63;1.02;;;16.50;96.60;;;;;;5071247;28;20032;-74
2022/11/09 08:01:24;;;;;;;3.80;1.27;;;16.40;96.60;;;;;;5071326;28;20071;-74
2022/11/09 08:03:52;;;;;;;10.43;1.42;;;16.40;96.70;;;;;;5053657;28;20518;-74
2022/11/09 08:06:18;;;;;;;8.57;1.40;;;16.50;96.70;;;;;;5071376;28;20028;-73
2022/11/09 08:08:44;;;;;;;3.40;1.17;;;16.40;96.70;;;;;;5054717;28;20078;-73
2022/11/09 08:11:10;;;;;;;1.83;1.13;;;16.50;96.70;;;;;;5053976;28;20032;-74
2022/11/09 08:13:36;;;;;;;2.05;1.10;;;16.40;96.80;;;;;;5053321;28;20035;-76
2022/11/09 08:16:02;;;;;;;1.85;1.20;;;16.40;96.80;;;;;;5053218;28;20032;-72
2022/11/09 08:18:29;;;;;;;4.53;1.25;;;16.40;96.90;;;;;;5071588;28;20110;-73
2022/11/09 08:20:55;;;;;;;3.15;1.30;;;16.50;96.80;;;;;;5053922;28;20358;-75
2022/11/09 08:23:21;;;;;;;3.50;1.10;;;16.40;96.70;;;;;;5071226;28;20033;-74
2022/11/09 08:25:48;;;;;;;3.67;1.20;;;16.40;96.70;;;;;;5070354;28;20055;-73
2022/11/09 08:28:17;;;;;;;3.55;1.30;;;16.50;96.60;;;;;;5071161;28;20032;-70
2022/11/09 08:30:44;;;;;;;3.40;1.63;;;16.50;96.70;;;;;;5071067;28;20036;-71
2022/11/09 08:33:10;;;;;;;3.03;1.25;;;16.40;96.70;;;;;;5070723;28;20025;-71
2022/11/09 08:35:36;;;;;;;2.20;1.38;;;16.50;96.70;;;;;;5071522;28;20214;-74
2022/11/09 08:38:04;;;;;;;8.15;1.30;;;16.50;96.70;;;;;;5053168;28;20309;-78
2022/11/09 08:40:31;;;;;;;3.83;1.25;;;16.50;96.70;;;;;;5053417;28;20432;-75
2022/11/09 08:43:01;;;;;;;4.00;1.55;;;16.50;96.80;;;;;;5070656;28;20049;-74
2022/11/09 08:45:27;;;;;;;2.38;1.10;;;16.50;96.80;;;;;;5070943;28;20177;-73
2022/11/09 08:47:59;;;;;;;4.10;1.08;;;16.50;96.70;;;;;;5071342;28;20120;-74
2022/11/09 08:50:27;;;;;;;3.83;1.08;;;16.60;96.70;;;;;;5070387;28;20051;-73
2022/11/09 08:52:52;;;;;;;4.97;1.23;;;16.60;96.60;;;;;;5070836;28;20029;-73
2022/11/09 08:55:18;;;;;;;3.35;1.10;;;16.70;96.90;;;;;;5070616;28;20061;-74
2022/11/09 08:57:44;;;;;;;6.93;2.55;;;16.50;97.20;;;;;;5053533;28;20052;-74
2022/11/09 09:00:10;;;;;;;4.78;2.08;;;16.60;97.40;;;;;;5070681;28;20017;-71
2022/11/09 09:02:36;;;;;;;7.50;0.88;;;16.60;97.50;;;;;;5071083;28;20028;-71
2022/11/09 09:05:02;;;;;;;3.78;1.17;;;16.60;97.40;;;;;;5070587;28;20044;-72
2022/11/09 09:07:27;;;;;;;3.20;1.13;;;16.50;97.50;;;;;;5070592;28;20039;-73
2022/11/09 09:09:53;;;;;;;4.97;1.77;;;16.60;97.50;;;;;;5052975;28;20114;-72
2022/11/09 09:12:18;;;;;;;3.58;1.25;;;16.60;97.60;;;;;;5070609;28;20079;-78
2022/11/09 09:14:44;;;;;;;3.25;1.20;;;16.60;97.40;;;;;;5053747;28;20040;-73
2022/11/09 09:17:10;;;;;;;2.67;0.93;;;16.50;97.40;;;;;;5070419;28;20331;-72
2022/11/09 09:19:36;;;;;;;3.90;0.98;;;16.50;97.70;;;;;;5070434;28;20028;-72
2022/11/09 09:22:01;;;;;;;2.30;1.13;;;16.50;97.70;;;;;;5069561;28;20032;-72
2022/11/09 09:24:27;;;;;;;7.43;1.85;;;16.60;97.60;;;;;;5070296;28;20354;-71
2022/11/09 09:26:53;;;;;;;4.28;1.20;;;16.60;97.80;;;;;;5070708;28;20029;-72
2022/11/09 09:29:19;;;;;;;6.18;1.45;;;16.60;97.70;;;;;;5070180;28;20044;-74
2022/11/09 09:31:45;;;;;;;2.33;1.13;;;16.60;97.70;;;;;;5052404;28;20119;-74
2022/11/09 09:34:11;;;;;;;2.95;1.23;;;16.70;97.70;;;;;;5070118;28;20120;-72
2022/11/09 09:36:37;;;;;;;3.67;0.90;;;16.70;97.80;;;;;;5070079;28;20028;-72
2022/11/09 09:39:03;;;;;;;2.67;1.02;;;16.70;97.90;;;;;;5052531;28;20032;-74
2022/11/09 09:41:38;;;;;;;2.17;0.82;;;16.70;98.10;;;;;;5070865;28;20462;-73
2022/11/09 09:44:22;;;;;;;3.00;1.00;;;16.80;97.70;;;;;;5070288;28;20032;-73
2022/11/09 09:47:14;;;;;;;1.65;0.85;;;16.70;97.90;;;;;;5070266;28;20052;-72
2022/11/09 09:49:45;;;;;;;4.30;0.98;;;16.70;97.90;;;;;;5070963;28;20097;-72
2022/11/09 09:52:15;;;;;;;4.63;1.52;;;16.70;97.90;;;;;;5070544;28;20024;-72
2022/11/09 09:54:47;;;;;;;6.22;0.93;;;16.70;97.90;;;;;;5070342;28;20025;-74
2022/11/09 09:57:19;;;;;;;2.00;0.90;;;16.70;97.70;;;;;;5069881;28;20119;-72
2022/11/09 09:59:49;;;;;;;6.03;0.90;;;16.70;97.60;;;;;;5070425;28;20047;-72
2022/11/09 10:02:24;;;;;;;1.40;0.80;;;16.60;97.40;;;;;;5072014;28;20074;-71
2022/11/09 10:04:53;;;;;;;1.95;0.80;;;16.60;97.50;;;;;;5073481;28;20063;-72
2022/11/09 10:07:37;;;;;;;5.95;1.08;;;16.60;97.40;;;;;;5073524;28;20498;-74
2022/11/09 10:10:17;;;;;;;2.97;0.85;;;16.60;97.40;;;;;;5072158;28;20458;-72
2022/11/09 10:13:05;;;;;;;3.47;0.90;;;16.70;97.40;;;;;;5073499;28;20078;-76
2022/11/09 10:15:41;;;;;;;3.42;1.15;;;16.70;97.40;;;;;;5073481;28;20193;-73
2022/11/09 10:18:46;;;;;;;3.22;0.80;;;16.80;97.30;;;;;;5073421;28;20025;-71
2022/11/09 10:21:43;;;;;;;5.93;1.20;;;16.80;97.50;;;;;;5073395;28;20043;-72
2022/11/09 10:24:23;;;;;;;2.80;0.90;;;16.90;97.70;;;;;;5073278;28;20025;-72
2022/11/09 10:26:55;;;;;;;3.00;0.98;;;17.10;97.50;;;;;;5073848;28;20028;-72
2022/11/09 10:29:35;;;;;;;6.18;1.30;;;17.20;97.20;;;;;;5073234;28;20025;-74
2022/11/09 10:32:13;;;;;;;7.57;1.40;;;17.20;96.90;;;;;;5072923;28;20043;-72
2022/11/09 10:34:59;;;;;;;3.03;1.20;;;17.20;96.80;;;;;;5073119;28;20355;-71
2022/11/09 10:37:39;;;;;;;6.63;1.52;;;17.10;96.60;;;;;;5072930;28;20604;-73
2022/11/09 10:40:08;;;;;;;3.45;1.08;;;17.00;96.60;;;;;;5072811;28;20033;-72
2022/11/09 10:42:34;;;;;;;5.93;1.50;;;16.90;96.60;;;;;;5072496;28;20370;-72
2022/11/09 10:45:11;;;;;;;4.93;1.55;;;17.00;96.70;;;;;;5072979;28;20097;-75
2022/11/09 10:47:48;;;;;;;6.20;1.50;;;17.00;96.40;;;;;;5077111;28;20091;-70
2022/11/09 10:50:21;;;;;;;4.60;1.13;;;16.90;96.50;;;;;;5072871;28;20052;-73
2022/11/09 10:52:47;;;;;;;2.65;0.70;;;16.80;96.20;;;;;;5055044;28;20031;-71
2022/11/09 10:55:27;;;;;;;6.80;1.20;;;17.00;96.60;;;;;;5072550;28;20446;-72
2022/11/09 10:58:00;;;;;;;2.65;0.75;;;17.10;96.30;;;;;;5055043;28;20341;-71
2022/11/09 11:00:26;;;;;;;2.83;1.30;;;17.70;96.80;;;;;;5071278;28;20037;-75
2022/11/09 11:02:54;;;;;;;2.90;0.80;;;18.60;95.40;;;;;;5055549;28;20078;-73
2022/11/09 11:05:26;;;;;;;3.38;1.00;;;19.50;94.80;;;;;;5072211;28;20042;-72
2022/11/09 11:07:51;;;;;;;5.30;1.25;;;20.30;93.30;;;;;;5054474;28;20108;-73
2022/11/09 11:10:19;;;;;;;4.13;1.45;;;20.90;93.60;;;;;;5072453;28;20504;-72
2022/11/09 11:12:59;;;;;;;4.13;1.10;;;21.90;93.40;;;;;;5053905;28;20046;-73
2022/11/09 11:15:35;;;;;;;6.45;1.45;;;22.00;90.50;;;;;;5072211;28;20158;-73
2022/11/09 11:18:03;;;;;;;3.53;1.48;;;22.40;91.10;;;;;;5054430;28;20051;-72
2022/11/09 11:20:34;;;;;;;4.93;0.93;;;23.00;89.30;;;;;;5072761;28;20039;-72
2022/11/09 11:23:19;;;;;;;5.18;1.15;;;23.10;89.70;;;;;;5072142;28;20415;-74
2022/11/09 11:25:57;;;;;;;4.32;1.15;;;22.90;86.90;;;;;;5074258;28;20074;-74
2022/11/09 11:28:31;;;;;;;4.45;1.05;;;22.70;86.00;;;;;;5071969;28;20032;-72
2022/11/09 11:30:57;;;;;;;3.13;0.82;;;22.70;86.60;;;;;;5071789;28;20024;-72
2022/11/09 11:33:22;;;;;;;4.40;0.73;;;22.70;86.00;;;;;;5071853;28;20060;-71
2022/11/09 11:36:02;;;;;;;4.07;0.98;;;22.10;84.90;;;;;;5072230;28;20307;-71
2022/11/09 11:39:07;;;;;;;4.18;1.33;;;21.50;86.20;;;;;;5054581;28;20064;-71
2022/11/09 11:41:44;;;;;;;3.85;0.85;;;21.30;88.60;;;;;;5071721;28;20111;-74
2022/11/09 11:44:24;;;;;;;5.90;1.15;;;20.60;88.10;;;;;;5054087;28;20044;-71
2022/11/09 11:47:02;;;;;;;3.63;1.08;;;20.70;88.30;;;;;;5071582;28;20093;-74
2022/11/09 11:49:27;;;;;;;3.28;0.90;;;20.50;88.00;;;;;;5071594;28;20074;-75
2022/11/09 11:52:22;;;;;;;2.50;1.10;;;20.40;88.10;;;;;;5071457;28;20041;-72
2022/11/09 11:54:59;;;;;;;3.55;1.00;;;20.00;89.10;;;;;;5071192;28;20503;-72
2022/11/09 11:57:43;;;;;;;4.45;1.50;;;20.10;88.90;;;;;;5071420;28;20024;-73
2022/11/09 12:00:14;;;;;;;5.20;1.20;;;20.00;89.50;;;;;;5071446;28;20032;-71
2022/11/09 12:03:00;;;;;;;4.15;1.00;;;20.00;89.10;;;;;;5071657;28;20382;-72
2022/11/09 12:05:44;;;;;;;9.23;1.75;;;20.00;89.20;;;;;;5071188;28;20059;-73
2022/11/09 12:08:14;;;;;;;7.18;1.38;;;20.10;89.20;;;;;;5071221;28;20619;-74
2022/11/09 12:11:12;;;;;;;3.08;1.10;;;19.70;88.80;;;;;;5053418;28;20037;-73
2022/11/09 12:13:57;;;;;;;2.88;1.02;;;19.40;90.00;;;;;;5053154;28;20485;-73
2022/11/09 12:16:40;;;;;;;3.58;0.90;;;19.40;89.90;;;;;;5070994;28;20024;-72
2022/11/09 12:19:43;;;;;;;5.50;2.13;;;19.30;90.70;;;;;;5053207;28;20044;-72
2022/11/09 12:22:17;;;;;;;7.05;2.70;;;19.40;90.20;;;;;;5071179;28;20028;-73
2022/11/09 12:25:10;;;;;;;9.43;1.73;;;19.40;90.60;;;;;;5069750;28;20021;-73
2022/11/09 12:28:14;;;;;;;6.80;2.00;;;19.10;90.50;;;;;;5070877;28;20028;-71
2022/11/09 12:30:56;;;;;;;3.00;0.70;;;19.20;90.90;;;;;;5015771;28;20075;-73
2022/11/09 12:33:48;;;;;;;5.47;1.10;;;19.30;90.70;;;;;;5053242;28;20358;-72
2022/11/09 12:36:26;;;;;;;3.53;0.82;;;19.20;91.00;;;;;;5052854;28;20093;-72
2022/11/09 12:38:56;;;;;;;1.90;0.85;;;19.30;90.60;;;;;;5071142;28;20019;-71
2022/11/09 12:41:27;;;;;;;7.47;1.48;;;19.10;90.70;;;;;;5070497;28;20071;-72
2022/11/09 12:44:09;;;;;;;3.25;1.17;;;19.30;90.90;;;;;;5070748;28;20074;-72
2022/11/09 12:46:41;;;;;;;3.70;0.93;;;19.30;90.70;;;;;;5070712;28;20055;-73
2022/11/09 12:49:25;;;;;;;3.45;0.85;;;19.30;90.60;;;;;;5053027;28;20107;-73
2022/11/09 12:51:51;;;;;;;5.32;1.30;;;18.90;90.80;;;;;;5070512;28;20079;-73
2022/11/09 12:54:17;;;;;;;3.22;1.10;;;19.10;90.70;;;;;;5070519;28;20458;-72
2022/11/09 12:56:55;;;;;;;5.70;1.30;;;19.20;90.70;;;;;;5053124;28;20421;-71
2022/11/09 12:59:33;;;;;;;8.98;1.52;;;19.00;90.50;;;;;;5069389;28;20074;-71
2022/11/09 13:02:00;;;;;;;1.83;0.77;;;19.00;90.60;;;;;;5070709;28;20056;-72